Time;durP1;ratioP1;P1;durP2;ratioP2;P2;SDS_P1;SDS_P2;PMS_P1;PMS_P2;Temp;Humidity;BMP_temperature;BMP_pressure;BME280_temperature;BME280_humidity;BME280_pressure;Samples;Min_cycle;Max_cycle;Signal;HPM_P1;HPM_P2
2023/09/03 00:00:31;;;;;;;10.00;9.10;;;;;;;;;;5077150;28;20180;-83
2023/09/03 00:02:57;;;;;;;9.17;8.37;;;;;;;;;;5079392;28;20190;-83
2023/09/03 00:05:23;;;;;;;9.00;8.10;;;;;;;;;;5078203;28;20273;-83
2023/09/03 00:07:51;;;;;;;9.47;8.53;;;;;;;;;;5077580;28;20226;-83
2023/09/03 00:10:17;;;;;;;9.43;8.63;;;;;;;;;;5076875;28;20206;-83
2023/09/03 00:12:44;;;;;;;8.90;8.10;;;;;;;;;;5078076;28;20195;-83
2023/09/03 00:15:10;;;;;;;9.07;8.13;;;;;;;;;;5077374;28;20192;-82
2023/09/03 00:17:36;;;;;;;8.97;8.17;;;;;;;;;;5078518;28;20181;-83
2023/09/03 00:20:02;;;;;;;9.77;8.87;;;;;;;;;;5077629;28;20180;-82
2023/09/03 00:22:28;;;;;;;8.63;7.83;;;;;;;;;;5075097;28;20683;-83
2023/09/03 00:24:55;;;;;;;8.93;8.03;;;;;;;;;;5079573;28;20674;-83
2023/09/03 00:27:21;;;;;;;9.73;8.80;;;;;;;;;;5069440;28;20563;-81
2023/09/03 00:29:47;;;;;;;8.27;7.60;;;;;;;;;;5071727;28;20228;-82
2023/09/03 00:32:13;;;;;;;8.73;7.93;;;;;;;;;;5071251;28;20249;-82
2023/09/03 00:34:39;;;;;;;8.87;8.07;;;;;;;;;;5072758;28;20514;-82
2023/09/03 00:37:05;;;;;;;9.43;8.53;;;;;;;;;;5071869;28;20169;-83
2023/09/03 00:39:31;;;;;;;8.43;7.73;;;;;;;;;;5069530;28;20633;-81
2023/09/03 00:41:57;;;;;;;8.13;7.43;;;;;;;;;;5068285;28;20185;-81
2023/09/03 00:44:23;;;;;;;9.20;8.30;;;;;;;;;;5069808;28;20246;-81
2023/09/03 00:46:49;;;;;;;9.20;8.37;;;;;;;;;;5071710;28;20241;-82
2023/09/03 00:49:20;;;;;;;8.33;7.57;;;;;;;;;;5071040;28;20188;-82
2023/09/03 00:51:46;;;;;;;9.07;8.27;;;;;;;;;;5065669;28;20206;-81
2023/09/03 00:54:13;;;;;;;9.67;8.67;;;;;;;;;;5072011;28;20667;-82
2023/09/03 00:56:40;;;;;;;9.03;8.30;;;;;;;;;;5068183;28;20234;-82
2023/09/03 00:59:06;;;;;;;8.50;7.70;;;;;;;;;;5064217;28;20180;-83
2023/09/03 01:01:33;;;;;;;9.37;8.57;;;;;;;;;;5069528;28;20706;-83
2023/09/03 01:03:59;;;;;;;9.27;8.37;;;;;;;;;;5071427;28;20177;-82
2023/09/03 01:06:25;;;;;;;9.40;8.53;;;;;;;;;;5067539;28;20233;-83
2023/09/03 01:08:52;;;;;;;8.67;7.87;;;;;;;;;;5068775;28;20182;-82
2023/09/03 01:11:36;;;;;;;11.27;8.70;;;;;;;;;;5065428;28;20212;-82
2023/09/03 01:14:08;;;;;;;8.00;7.30;;;;;;;;;;5050531;28;20187;-82
2023/09/03 01:16:39;;;;;;;9.10;8.30;;;;;;;;;;5068660;28;20642;-83
2023/09/03 01:19:09;;;;;;;9.80;8.90;;;;;;;;;;5070519;28;20244;-82
2023/09/03 01:21:52;;;;;;;9.73;8.93;;;;;;;;;;5068567;28;20177;-82
2023/09/03 01:24:19;;;;;;;8.40;7.70;;;;;;;;;;5069107;28;20511;-82
2023/09/03 01:26:54;;;;;;;9.90;9.00;;;;;;;;;;5067174;28;20674;-82
2023/09/03 01:29:20;;;;;;;9.30;8.50;;;;;;;;;;5067231;28;20321;-81
2023/09/03 01:31:48;;;;;;;9.07;8.30;;;;;;;;;;5067142;28;20185;-83
2023/09/03 01:34:15;;;;;;;9.50;8.70;;;;;;;;;;5070975;28;20200;-82
2023/09/03 01:36:41;;;;;;;9.37;8.53;;;;;;;;;;5065560;28;20185;-83
2023/09/03 01:39:07;;;;;;;10.27;9.37;;;;;;;;;;5070474;28;20165;-84
2023/09/03 01:41:34;;;;;;;9.40;8.60;;;;;;;;;;5070042;28;20186;-83
2023/09/03 01:44:02;;;;;;;9.73;8.80;;;;;;;;;;5068723;28;20631;-84
2023/09/03 01:46:47;;;;;;;9.83;8.83;;;;;;;;;;5065942;28;20346;-84
2023/09/03 01:49:28;;;;;;;9.03;8.30;;;;;;;;;;5070834;28;20197;-84
2023/09/03 01:52:00;;;;;;;8.97;8.27;;;;;;;;;;5060361;28;20207;-84
2023/09/03 01:54:31;;;;;;;8.83;8.03;;;;;;;;;;5068165;28;20271;-83
2023/09/03 01:56:58;;;;;;;9.97;9.07;;;;;;;;;;5069212;28;20296;-84
2023/09/03 01:59:27;;;;;;;10.20;9.30;;;;;;;;;;5066165;28;20203;-84
2023/09/03 02:01:53;;;;;;;9.50;8.60;;;;;;;;;;5044852;28;20165;-84
2023/09/03 02:04:19;;;;;;;10.60;9.60;;;;;;;;;;5070116;28;20669;-83
2023/09/03 02:06:48;;;;;;;9.80;8.90;;;;;;;;;;5073090;28;20300;-84
2023/09/03 02:09:14;;;;;;;10.20;9.20;;;;;;;;;;5068758;28;20185;-83
2023/09/03 02:11:40;;;;;;;9.30;8.37;;;;;;;;;;5068145;28;20261;-84
2023/09/03 02:14:06;;;;;;;9.43;8.63;;;;;;;;;;5052240;28;20183;-84
2023/09/03 02:16:32;;;;;;;9.13;8.23;;;;;;;;;;5068022;28;20608;-83
2023/09/03 02:18:58;;;;;;;9.07;8.37;;;;;;;;;;5049327;28;20648;-83
2023/09/03 02:21:24;;;;;;;10.00;9.20;;;;;;;;;;5068074;28;20199;-83
2023/09/03 02:23:51;;;;;;;9.33;8.53;;;;;;;;;;5070527;28;20657;-84
2023/09/03 02:26:18;;;;;;;9.63;8.77;;;;;;;;;;5070598;28;20640;-83
2023/09/03 02:28:44;;;;;;;8.73;7.97;;;;;;;;;;5041239;28;20680;-84
2023/09/03 02:31:11;;;;;;;9.30;8.47;;;;;;;;;;5069441;28;20216;-83
2023/09/03 02:33:37;;;;;;;9.30;8.43;;;;;;;;;;5067270;28;20317;-83
2023/09/03 02:36:03;;;;;;;9.63;8.83;;;;;;;;;;5071121;28;20179;-85
2023/09/03 02:38:29;;;;;;;8.70;7.90;;;;;;;;;;5068533;28;20718;-84
2023/09/03 02:40:55;;;;;;;8.70;7.90;;;;;;;;;;5059326;28;20732;-85
2023/09/03 02:43:21;;;;;;;9.27;8.43;;;;;;;;;;5044901;28;20184;-85
2023/09/03 02:45:47;;;;;;;8.73;7.83;;;;;;;;;;5067392;28;20181;-83
2023/09/03 02:48:13;;;;;;;9.63;8.63;;;;;;;;;;5069974;28;20764;-84
2023/09/03 02:50:39;;;;;;;9.30;8.40;;;;;;;;;;5067535;28;20301;-84
2023/09/03 02:53:06;;;;;;;10.17;9.10;;;;;;;;;;5067121;28;20180;-84
2023/09/03 02:55:32;;;;;;;9.10;8.30;;;;;;;;;;5068392;28;20176;-84
2023/09/03 02:57:58;;;;;;;9.17;7.97;;;;;;;;;;5066169;28;20177;-84
2023/09/03 03:00:24;;;;;;;9.30;8.50;;;;;;;;;;5067147;28;20206;-84
2023/09/03 03:02:52;;;;;;;9.87;9.03;;;;;;;;;;5068207;28;20706;-83
2023/09/03 03:05:18;;;;;;;11.07;8.73;;;;;;;;;;5070691;28;20236;-84
2023/09/03 03:07:44;;;;;;;9.07;8.27;;;;;;;;;;5072870;28;20652;-83
2023/09/03 03:10:10;;;;;;;8.67;7.97;;;;;;;;;;5047131;28;20212;-83
2023/09/03 03:12:36;;;;;;;8.93;8.13;;;;;;;;;;5072228;28;20239;-83
2023/09/03 03:15:03;;;;;;;9.47;8.57;;;;;;;;;;5069739;28;20189;-83
2023/09/03 03:17:29;;;;;;;8.93;8.13;;;;;;;;;;5071065;28;20174;-83
2023/09/03 03:19:55;;;;;;;10.50;9.50;;;;;;;;;;5071419;28;20245;-84
2023/09/03 03:22:21;;;;;;;9.40;8.60;;;;;;;;;;5068867;28;20220;-84
2023/09/03 03:24:47;;;;;;;9.07;8.27;;;;;;;;;;5069167;28;20195;-83
2023/09/03 03:27:14;;;;;;;9.83;8.87;;;;;;;;;;5071160;28;20217;-83
2023/09/03 03:29:40;;;;;;;9.17;8.40;;;;;;;;;;5072010;28;20208;-84
2023/09/03 03:32:07;;;;;;;10.37;9.43;;;;;;;;;;5070571;28;20697;-84
2023/09/03 03:34:33;;;;;;;10.13;9.23;;;;;;;;;;5073150;28;20188;-83
2023/09/03 03:36:59;;;;;;;9.00;8.20;;;;;;;;;;5071715;28;20186;-84
2023/09/03 03:39:25;;;;;;;10.57;9.67;;;;;;;;;;5071178;28;20187;-83
2023/09/03 03:41:52;;;;;;;9.27;8.33;;;;;;;;;;5046521;28;20191;-83
2023/09/03 03:44:18;;;;;;;9.23;8.47;;;;;;;;;;5072166;28;20650;-84
2023/09/03 03:46:44;;;;;;;9.33;8.60;;;;;;;;;;5070579;28;20221;-84
2023/09/03 03:49:10;;;;;;;8.30;7.60;;;;;;;;;;5070881;28;20192;-83
2023/09/03 03:51:36;;;;;;;9.40;8.60;;;;;;;;;;5070281;28;20376;-83
2023/09/03 03:54:04;;;;;;;8.30;7.60;;;;;;;;;;5039546;28;20201;-84
2023/09/03 03:56:30;;;;;;;8.77;7.97;;;;;;;;;;5071384;28;20184;-84
2023/09/03 03:58:56;;;;;;;9.50;8.70;;;;;;;;;;5071369;28;20243;-82
2023/09/03 04:01:26;;;;;;;9.87;8.97;;;;;;;;;;5071491;28;20168;-83
2023/09/03 04:03:53;;;;;;;8.93;8.13;;;;;;;;;;5069969;28;20185;-84
2023/09/03 04:06:19;;;;;;;9.83;8.83;;;;;;;;;;5070935;28;20216;-82
2023/09/03 04:08:45;;;;;;;9.63;8.73;;;;;;;;;;5070883;28;20189;-84
2023/09/03 04:11:12;;;;;;;9.77;8.87;;;;;;;;;;5069293;28;20217;-84
2023/09/03 04:13:38;;;;;;;8.70;7.80;;;;;;;;;;5072192;28;20276;-84
2023/09/03 04:16:09;;;;;;;9.87;8.93;;;;;;;;;;5064307;28;20185;-84
2023/09/03 04:18:35;;;;;;;9.33;8.43;;;;;;;;;;5069551;28;20200;-83
2023/09/03 04:21:01;;;;;;;8.87;8.03;;;;;;;;;;5072872;28;20693;-84
2023/09/03 04:23:27;;;;;;;8.50;7.80;;;;;;;;;;5073032;28;20648;-84
2023/09/03 04:25:56;;;;;;;9.17;8.23;;;;;;;;;;5037898;28;20251;-84
2023/09/03 04:28:22;;;;;;;9.40;8.57;;;;;;;;;;5069758;28;20732;-83
2023/09/03 04:30:53;;;;;;;9.20;8.40;;;;;;;;;;5067762;28;20686;-84
2023/09/03 04:33:19;;;;;;;8.60;7.80;;;;;;;;;;5069910;28;20189;-84
2023/09/03 04:35:46;;;;;;;9.00;8.10;;;;;;;;;;5067654;28;20180;-83
2023/09/03 04:38:12;;;;;;;9.70;8.70;;;;;;;;;;5071542;28;20938;-85
2023/09/03 04:40:38;;;;;;;9.27;8.37;;;;;;;;;;5070765;28;20192;-83
2023/09/03 04:43:04;;;;;;;9.17;8.27;;;;;;;;;;5071338;28;20645;-84
2023/09/03 04:45:31;;;;;;;8.60;7.80;;;;;;;;;;5069226;28;20180;-83
2023/09/03 04:47:58;;;;;;;9.80;8.80;;;;;;;;;;5069461;28;20204;-84
2023/09/03 04:50:25;;;;;;;8.73;7.93;;;;;;;;;;5068635;28;20276;-82
2023/09/03 04:52:51;;;;;;;9.40;8.50;;;;;;;;;;5069135;28;20271;-83
2023/09/03 04:55:17;;;;;;;7.90;7.20;;;;;;;;;;5068878;28;20183;-83
2023/09/03 04:57:43;;;;;;;9.90;8.87;;;;;;;;;;5048504;28;20177;-83
2023/09/03 05:00:10;;;;;;;9.73;8.83;;;;;;;;;;5066511;28;20655;-83
2023/09/03 05:02:36;;;;;;;9.17;8.27;;;;;;;;;;5069310;28;20203;-83
2023/09/03 05:05:02;;;;;;;9.57;7.97;;;;;;;;;;5069412;28;20725;-84
2023/09/03 05:07:29;;;;;;;8.37;7.67;;;;;;;;;;5068916;28;20259;-84
2023/09/03 05:09:58;;;;;;;9.63;7.70;;;;;;;;;;5066906;28;20225;-83
2023/09/03 05:12:24;;;;;;;8.50;7.63;;;;;;;;;;5043130;28;20405;-83
2023/09/03 05:14:50;;;;;;;8.80;7.87;;;;;;;;;;5047317;28;20565;-83
2023/09/03 05:17:16;;;;;;;8.33;7.63;;;;;;;;;;5067427;28;20648;-85
2023/09/03 05:19:42;;;;;;;8.47;7.77;;;;;;;;;;5070325;28;20207;-83
2023/09/03 05:22:08;;;;;;;8.40;6.90;;;;;;;;;;5067766;28;20195;-84
2023/09/03 05:24:34;;;;;;;9.27;8.33;;;;;;;;;;5069726;28;20204;-83
2023/09/03 05:27:00;;;;;;;8.23;7.37;;;;;;;;;;5066148;28;20176;-83
2023/09/03 05:29:26;;;;;;;9.27;8.33;;;;;;;;;;5070110;28;20209;-84
2023/09/03 05:31:53;;;;;;;8.70;7.80;;;;;;;;;;5067667;28;20216;-83
2023/09/03 05:34:19;;;;;;;9.13;8.23;;;;;;;;;;5067141;28;20180;-83
2023/09/03 05:36:45;;;;;;;8.40;7.70;;;;;;;;;;5040298;28;20268;-83
2023/09/03 05:39:11;;;;;;;7.90;7.20;;;;;;;;;;5066625;28;20735;-83
2023/09/03 05:41:38;;;;;;;8.47;7.67;;;;;;;;;;5067040;28;20651;-84
2023/09/03 05:44:09;;;;;;;8.90;8.03;;;;;;;;;;5069616;28;20550;-84
2023/09/03 05:46:35;;;;;;;9.73;8.80;;;;;;;;;;5046517;28;20185;-84
2023/09/03 05:49:01;;;;;;;8.70;7.80;;;;;;;;;;5069308;28;20185;-84
2023/09/03 05:51:27;;;;;;;8.33;7.60;;;;;;;;;;5066673;28;20264;-83
2023/09/03 05:53:53;;;;;;;9.03;8.13;;;;;;;;;;5065240;28;20209;-84
2023/09/03 05:56:19;;;;;;;8.97;8.17;;;;;;;;;;5068827;28;20624;-84
2023/09/03 05:58:46;;;;;;;9.10;8.20;;;;;;;;;;5069900;28;20574;-84
2023/09/03 06:01:12;;;;;;;8.43;7.73;;;;;;;;;;5069292;28;20248;-83
2023/09/03 06:03:39;;;;;;;9.10;8.20;;;;;;;;;;5068723;28;20636;-84
2023/09/03 06:06:05;;;;;;;8.13;7.40;;;;;;;;;;5068912;28;20219;-84
2023/09/03 06:08:32;;;;;;;8.67;7.80;;;;;;;;;;5069646;28;20188;-84
2023/09/03 06:10:58;;;;;;;8.03;7.33;;;;;;;;;;5064849;28;20197;-84
2023/09/03 06:13:24;;;;;;;8.57;7.63;;;;;;;;;;5068647;28;20584;-84
2023/09/03 06:15:51;;;;;;;8.70;7.90;;;;;;;;;;5069568;28;20226;-84
2023/09/03 06:18:17;;;;;;;9.10;8.27;;;;;;;;;;5068446;28;20215;-84
2023/09/03 06:20:43;;;;;;;8.97;8.13;;;;;;;;;;5065647;28;20176;-84
2023/09/03 06:23:09;;;;;;;7.67;6.97;;;;;;;;;;5050426;28;20179;-85
2023/09/03 06:25:38;;;;;;;8.30;7.47;;;;;;;;;;5068967;28;20667;-85
2023/09/03 06:28:04;;;;;;;8.40;7.60;;;;;;;;;;5066698;28;20538;-84
2023/09/03 06:30:30;;;;;;;8.63;7.93;;;;;;;;;;5048404;28;20562;-84
2023/09/03 06:32:57;;;;;;;8.43;7.50;;;;;;;;;;5063942;28;20250;-84
2023/09/03 06:35:23;;;;;;;7.57;6.87;;;;;;;;;;5073097;28;20204;-85
2023/09/03 06:37:49;;;;;;;7.87;7.17;;;;;;;;;;5066281;28;20184;-84
2023/09/03 06:40:16;;;;;;;7.70;7.00;;;;;;;;;;5072987;28;20188;-84
2023/09/03 06:42:42;;;;;;;8.03;7.33;;;;;;;;;;5050327;28;20341;-85
2023/09/03 06:45:09;;;;;;;7.47;6.87;;;;;;;;;;5073590;28;20188;-85
2023/09/03 06:47:35;;;;;;;7.57;6.83;;;;;;;;;;5073875;28;20191;-85
2023/09/03 06:50:01;;;;;;;7.80;7.10;;;;;;;;;;5070394;28;20192;-84
2023/09/03 06:52:27;;;;;;;7.43;6.77;;;;;;;;;;5050338;28;20202;-87
2023/09/03 06:54:53;;;;;;;7.60;7.00;;;;;;;;;;5070140;28;20184;-87
2023/09/03 06:57:20;;;;;;;7.73;7.03;;;;;;;;;;5073606;28;20210;-85
2023/09/03 06:59:46;;;;;;;7.13;6.53;;;;;;;;;;5069536;28;20182;-86
2023/09/03 07:02:12;;;;;;;7.63;6.93;;;;;;;;;;5067615;28;20559;-86
2023/09/03 07:04:38;;;;;;;7.77;7.07;;;;;;;;;;5067741;28;22045;-87
2023/09/03 07:07:04;;;;;;;7.97;7.30;;;;;;;;;;5071026;28;20838;-87
2023/09/03 07:09:32;;;;;;;7.43;6.83;;;;;;;;;;5074466;28;20643;-87
2023/09/03 07:11:58;;;;;;;7.40;6.70;;;;;;;;;;5073525;28;20248;-87
2023/09/03 07:14:25;;;;;;;7.87;7.10;;;;;;;;;;5070322;28;20191;-86
2023/09/03 07:16:51;;;;;;;7.70;7.10;;;;;;;;;;5065655;28;20178;-86
2023/09/03 07:19:17;;;;;;;9.13;7.53;;;;;;;;;;5064518;28;20258;-86
2023/09/03 07:21:44;;;;;;;15.20;13.80;;;;;;;;;;5068121;28;20243;-85
2023/09/03 07:24:11;;;;;;;23.17;19.70;;;;;;;;;;5052938;28;20189;-85
2023/09/03 07:26:37;;;;;;;23.83;20.37;;;;;;;;;;5067651;28;20209;-85
2023/09/03 07:29:03;;;;;;;21.20;19.10;;;;;;;;;;5069338;28;20192;-85
2023/09/03 07:31:29;;;;;;;21.53;19.30;;;;;;;;;;5066793;28;20215;-84
2023/09/03 07:33:58;;;;;;;23.07;20.67;;;;;;;;;;5068802;28;20292;-85
2023/09/03 07:36:24;;;;;;;22.37;19.97;;;;;;;;;;5071730;28;20582;-84
2023/09/03 07:38:50;;;;;;;23.07;20.87;;;;;;;;;;5068906;28;21001;-86
2023/09/03 07:41:16;;;;;;;21.23;19.13;;;;;;;;;;5069284;28;20676;-84
2023/09/03 07:43:42;;;;;;;23.53;21.07;;;;;;;;;;5070943;28;20190;-85
2023/09/03 07:46:08;;;;;;;24.70;22.20;;;;;;;;;;5070252;28;20284;-86
2023/09/03 07:48:34;;;;;;;22.23;19.93;;;;;;;;;;5066678;28;20201;-86
2023/09/03 07:51:00;;;;;;;22.53;19.70;;;;;;;;;;5066710;28;20201;-85
2023/09/03 07:53:26;;;;;;;22.93;20.00;;;;;;;;;;5049380;28;20503;-87
2023/09/03 07:55:52;;;;;;;26.20;22.70;;;;;;;;;;5069172;28;20189;-86
2023/09/03 07:58:18;;;;;;;26.20;23.17;;;;;;;;;;5068589;28;20185;-79
2023/09/03 08:00:45;;;;;;;24.07;21.60;;;;;;;;;;5072456;28;20204;-83
2023/09/03 08:03:11;;;;;;;25.23;22.73;;;;;;;;;;5071925;28;20551;-82
2023/09/03 08:05:37;;;;;;;23.90;21.40;;;;;;;;;;5073069;28;20242;-81
2023/09/03 08:08:03;;;;;;;23.97;21.07;;;;;;;;;;5069846;28;20587;-80
2023/09/03 08:10:29;;;;;;;24.47;21.87;;;;;;;;;;5070131;28;20696;-81
2023/09/03 08:12:55;;;;;;;25.37;22.53;;;;;;;;;;5070245;28;20928;-85
2023/09/03 08:15:21;;;;;;;27.83;23.63;;;;;;;;;;5069840;28;20751;-79
2023/09/03 08:17:47;;;;;;;22.23;19.87;;;;;;;;;;5069788;28;20495;-79
2023/09/03 08:20:13;;;;;;;22.13;20.03;;;;;;;;;;5067947;28;20705;-82
2023/09/03 08:22:40;;;;;;;21.43;19.43;;;;;;;;;;5069322;28;20191;-85
2023/09/03 08:25:06;;;;;;;21.70;19.40;;;;;;;;;;5070740;28;20193;-85
2023/09/03 08:27:32;;;;;;;21.63;19.43;;;;;;;;;;5048320;28;20185;-87
2023/09/03 08:29:58;;;;;;;19.07;17.30;;;;;;;;;;5073456;28;20185;-86
2023/09/03 08:32:24;;;;;;;19.37;17.27;;;;;;;;;;5072875;28;20305;-87
2023/09/03 08:34:51;;;;;;;17.93;16.33;;;;;;;;;;5071452;28;20176;-85
2023/09/03 08:37:17;;;;;;;18.13;16.33;;;;;;;;;;5070250;28;20625;-86
2023/09/03 08:39:44;;;;;;;18.57;14.90;;;;;;;;;;5071870;28;20644;-82
2023/09/03 08:42:14;;;;;;;16.77;15.10;;;;;;;;;;5068342;28;20196;-83
2023/09/03 08:44:46;;;;;;;15.47;13.97;;;;;;;;;;5068803;28;20169;-83
2023/09/03 08:47:13;;;;;;;13.37;12.10;;;;;;;;;;5068984;28;20188;-82
2023/09/03 08:49:40;;;;;;;12.77;11.57;;;;;;;;;;5069477;28;20183;-83
2023/09/03 08:52:07;;;;;;;12.83;11.70;;;;;;;;;;5067990;28;20208;-83
2023/09/03 08:54:34;;;;;;;12.70;11.43;;;;;;;;;;5068051;28;20184;-80
2023/09/03 08:57:01;;;;;;;13.60;11.83;;;;;;;;;;5068529;28;20234;-80
2023/09/03 08:59:27;;;;;;;13.10;12.00;;;;;;;;;;5051017;28;20181;-84
2023/09/03 09:01:54;;;;;;;10.93;9.90;;;;;;;;;;5066020;28;20621;-85
2023/09/03 09:04:21;;;;;;;12.63;11.40;;;;;;;;;;5072069;28;20192;-84
2023/09/03 09:06:48;;;;;;;12.07;10.80;;;;;;;;;;5070831;28;20228;-84
2023/09/03 09:09:15;;;;;;;12.57;11.30;;;;;;;;;;5074391;28;20188;-82
2023/09/03 09:11:42;;;;;;;12.10;10.87;;;;;;;;;;5069898;28;20208;-82
2023/09/03 09:14:12;;;;;;;11.50;10.47;;;;;;;;;;5052496;28;20211;-81
2023/09/03 09:16:38;;;;;;;14.77;13.40;;;;;;;;;;5070001;28;20177;-81
2023/09/03 09:19:04;;;;;;;13.63;12.23;;;;;;;;;;5068480;28;20235;-82
2023/09/03 09:21:32;;;;;;;13.30;12.00;;;;;;;;;;5064156;28;20184;-83
2023/09/03 09:24:05;;;;;;;14.00;12.70;;;;;;;;;;5065058;28;20181;-80
2023/09/03 09:26:31;;;;;;;13.30;11.57;;;;;;;;;;5065066;28;20229;-81
2023/09/03 09:28:58;;;;;;;13.00;11.73;;;;;;;;;;5065952;28;20299;-80
2023/09/03 09:31:31;;;;;;;13.07;10.60;;;;;;;;;;5065219;28;20200;-79
2023/09/03 09:34:01;;;;;;;12.17;10.50;;;;;;;;;;5065009;28;20283;-80
2023/09/03 09:36:27;;;;;;;10.20;9.30;;;;;;;;;;5066109;28;20176;-81
2023/09/03 09:39:04;;;;;;;10.67;9.77;;;;;;;;;;5071190;28;20181;-80
2023/09/03 09:41:30;;;;;;;14.33;10.50;;;;;;;;;;5061923;28;20207;-79
2023/09/03 09:43:56;;;;;;;11.20;10.20;;;;;;;;;;5065428;28;20181;-79
2023/09/03 09:46:26;;;;;;;10.47;9.57;;;;;;;;;;5066359;28;20324;-80
2023/09/03 09:48:59;;;;;;;11.53;10.20;;;;;;;;;;5066590;28;20545;-82
2023/09/03 09:51:26;;;;;;;9.90;9.00;;;;;;;;;;5060547;28;20239;-85
2023/09/03 09:54:02;;;;;;;10.40;9.43;;;;;;;;;;5069135;28;20176;-84
2023/09/03 09:56:29;;;;;;;10.93;9.87;;;;;;;;;;5069894;28;20173;-89
2023/09/03 09:58:59;;;;;;;11.40;10.30;;;;;;;;;;5071335;28;20201;-85
2023/09/03 10:01:27;;;;;;;13.13;11.97;;;;;;;;;;5063779;28;20183;-82
2023/09/03 10:03:53;;;;;;;12.70;11.50;;;;;;;;;;5067741;28;20249;-81
2023/09/03 10:06:20;;;;;;;11.07;10.00;;;;;;;;;;5065309;28;20228;-81
2023/09/03 10:08:47;;;;;;;13.43;12.13;;;;;;;;;;5068383;28;20181;-79
2023/09/03 10:11:13;;;;;;;11.40;10.40;;;;;;;;;;5069124;28;20294;-80
2023/09/03 10:13:41;;;;;;;12.23;11.13;;;;;;;;;;5062704;28;20228;-84
2023/09/03 10:16:07;;;;;;;12.07;10.97;;;;;;;;;;5066158;28;20652;-81
2023/09/03 10:18:38;;;;;;;9.73;8.90;;;;;;;;;;5068085;28;20592;-84
2023/09/03 10:21:07;;;;;;;10.67;9.37;;;;;;;;;;5066014;28;20559;-87
2023/09/03 10:23:34;;;;;;;11.27;10.27;;;;;;;;;;5063853;28;20270;-85
2023/09/03 10:26:02;;;;;;;13.13;9.43;;;;;;;;;;5067586;28;20199;-84
2023/09/03 10:28:28;;;;;;;7.97;7.20;;;;;;;;;;5066356;28;20535;-85
2023/09/03 10:30:55;;;;;;;8.27;7.47;;;;;;;;;;5062430;28;20675;-84
2023/09/03 10:33:21;;;;;;;10.50;9.47;;;;;;;;;;5047765;28;20299;-82
2023/09/03 10:36:15;;;;;;;5.93;5.33;;;;;;;;;;5069663;28;20179;-83
2023/09/03 10:38:42;;;;;;;5.30;4.80;;;;;;;;;;5061753;28;20189;-81
2023/09/03 10:41:21;;;;;;;6.07;5.47;;;;;;;;;;5050530;28;20518;-82
2023/09/03 10:43:47;;;;;;;8.90;8.13;;;;;;;;;;5075140;28;20188;-84
2023/09/03 10:46:13;;;;;;;9.43;8.47;;;;;;;;;;5073142;28;20180;-85
2023/09/03 10:48:40;;;;;;;8.60;7.77;;;;;;;;;;5070780;28;20236;-83
2023/09/03 10:51:07;;;;;;;8.13;5.97;;;;;;;;;;5075471;28;20201;-87
2023/09/03 10:53:36;;;;;;;7.33;6.10;;;;;;;;;;5078999;28;20192;-82
2023/09/03 10:56:19;;;;;;;4.70;4.30;;;;;;;;;;5066599;28;20189;-84
2023/09/03 10:58:58;;;;;;;4.37;3.97;;;;;;;;;;5066586;28;20189;-84
2023/09/03 11:01:30;;;;;;;7.37;6.17;;;;;;;;;;5072174;28;20173;-82
2023/09/03 11:03:56;;;;;;;8.47;7.57;;;;;;;;;;5053273;28;20212;-84
2023/09/03 11:06:24;;;;;;;13.33;11.97;;;;;;;;;;5068778;28;20216;-83
2023/09/03 11:09:05;;;;;;;5.73;5.23;;;;;;;;;;5066830;28;20238;-83
2023/09/03 11:11:33;;;;;;;6.30;5.80;;;;;;;;;;5059943;28;20212;-85
2023/09/03 11:14:00;;;;;;;7.97;7.27;;;;;;;;;;5073821;28;20192;-86
2023/09/03 11:16:32;;;;;;;6.63;6.13;;;;;;;;;;5073463;28;20230;-84
2023/09/03 11:19:00;;;;;;;7.47;6.63;;;;;;;;;;5068203;28;20181;-85
2023/09/03 11:21:27;;;;;;;6.80;6.13;;;;;;;;;;5047024;28;20208;-83
2023/09/03 11:24:03;;;;;;;5.93;4.97;;;;;;;;;;5070896;28;20173;-85
2023/09/03 11:26:30;;;;;;;5.90;5.37;;;;;;;;;;5073618;28;20173;-85
2023/09/03 11:28:56;;;;;;;6.00;5.50;;;;;;;;;;5075874;28;20208;-81
2023/09/03 11:31:23;;;;;;;5.47;4.97;;;;;;;;;;5075564;28;20205;-81
2023/09/03 11:33:50;;;;;;;5.13;4.63;;;;;;;;;;5074564;28;20325;-81
2023/09/03 11:36:21;;;;;;;5.80;5.30;;;;;;;;;;5072444;28;20187;-83
2023/09/03 11:38:47;;;;;;;7.07;6.00;;;;;;;;;;5074150;28;20219;-81
2023/09/03 11:41:16;;;;;;;5.67;5.17;;;;;;;;;;5077040;28;20195;-81
2023/09/03 11:43:42;;;;;;;5.30;4.83;;;;;;;;;;5073554;28;20191;-86
2023/09/03 11:46:12;;;;;;;5.20;4.80;;;;;;;;;;5073433;28;20185;-80
2023/09/03 11:48:39;;;;;;;7.73;4.47;;;;;;;;;;5076192;28;20185;-81
2023/09/03 11:51:06;;;;;;;6.17;4.40;;;;;;;;;;5058056;28;20200;-86
2023/09/03 11:53:39;;;;;;;5.83;4.47;;;;;;;;;;5076596;28;20306;-84
2023/09/03 11:56:06;;;;;;;5.63;4.73;;;;;;;;;;5073434;28;20208;-85
2023/09/03 11:58:32;;;;;;;5.07;4.40;;;;;;;;;;5073986;28;20237;-88
2023/09/03 12:00:58;;;;;;;4.57;4.03;;;;;;;;;;5072762;28;20605;-86
2023/09/03 12:03:25;;;;;;;6.37;5.20;;;;;;;;;;5054409;28;20185;-86
2023/09/03 12:05:51;;;;;;;4.67;4.20;;;;;;;;;;5076613;28;20240;-87
2023/09/03 12:08:17;;;;;;;5.37;4.37;;;;;;;;;;5070912;28;20191;-86
2023/09/03 12:10:47;;;;;;;5.13;4.40;;;;;;;;;;5054924;28;20212;-88
2023/09/03 12:13:13;;;;;;;4.73;4.23;;;;;;;;;;5079219;28;20192;-87
2023/09/03 12:15:39;;;;;;;5.50;4.90;;;;;;;;;;5047475;28;20509;-82
2023/09/03 12:18:09;;;;;;;5.03;4.63;;;;;;;;;;5076257;28;20173;-91
2023/09/03 12:20:39;;;;;;;5.37;4.60;;;;;;;;;;5072038;28;20194;-84
2023/09/03 12:23:06;;;;;;;5.10;4.60;;;;;;;;;;5061088;28;20225;-82
2023/09/03 12:25:35;;;;;;;5.50;4.50;;;;;;;;;;5071740;28;20193;-90
2023/09/03 12:28:01;;;;;;;4.97;4.23;;;;;;;;;;5078443;28;20292;-90
2023/09/03 12:30:28;;;;;;;4.63;4.23;;;;;;;;;;5081263;28;20208;-91
2023/09/03 12:32:54;;;;;;;4.37;4.07;;;;;;;;;;5076865;28;20175;-85
2023/09/03 12:35:20;;;;;;;6.70;4.27;;;;;;;;;;5081596;28;20192;-88
2023/09/03 12:37:46;;;;;;;4.67;3.93;;;;;;;;;;5083076;28;20190;-86
2023/09/03 12:40:13;;;;;;;4.00;3.60;;;;;;;;;;5075838;28;20230;-82
2023/09/03 12:42:39;;;;;;;4.47;4.17;;;;;;;;;;5056692;28;20180;-81
2023/09/03 12:45:06;;;;;;;4.30;3.70;;;;;;;;;;5076179;28;20299;-84
2023/09/03 12:47:32;;;;;;;5.77;4.07;;;;;;;;;;5070164;28;20182;-80
2023/09/03 12:49:58;;;;;;;3.60;3.30;;;;;;;;;;5076100;28;20173;-88
2023/09/03 12:52:24;;;;;;;3.63;3.33;;;;;;;;;;5087106;28;20211;-88
2023/09/03 12:54:50;;;;;;;3.83;3.53;;;;;;;;;;5086656;28;20204;-84
2023/09/03 12:57:16;;;;;;;4.67;3.60;;;;;;;;;;5074599;28;20195;-83
2023/09/03 12:59:42;;;;;;;4.30;3.90;;;;;;;;;;5072355;28;20183;-84
2023/09/03 13:02:08;;;;;;;3.67;3.37;;;;;;;;;;5074251;28;20192;-82
2023/09/03 13:04:34;;;;;;;3.50;3.03;;;;;;;;;;5074414;28;20578;-84
2023/09/03 13:07:00;;;;;;;4.37;3.27;;;;;;;;;;5071649;28;20219;-83
2023/09/03 13:09:26;;;;;;;4.20;3.80;;;;;;;;;;5067748;28;20190;-86
2023/09/03 13:11:53;;;;;;;3.33;3.03;;;;;;;;;;5052800;28;20265;-83
2023/09/03 13:14:19;;;;;;;3.90;3.50;;;;;;;;;;5069625;28;20179;-82
2023/09/03 13:16:45;;;;;;;3.57;3.27;;;;;;;;;;5067295;28;20324;-83
2023/09/03 13:19:11;;;;;;;3.80;3.50;;;;;;;;;;5070473;28;20191;-86
2023/09/03 13:21:37;;;;;;;4.93;3.23;;;;;;;;;;5066811;28;20176;-83
2023/09/03 13:24:03;;;;;;;8.87;3.80;;;;;;;;;;5065675;28;20245;-86
2023/09/03 13:26:30;;;;;;;3.63;3.30;;;;;;;;;;5072297;28;20192;-85
2023/09/03 13:28:56;;;;;;;3.33;3.03;;;;;;;;;;5068491;28;20204;-87
2023/09/03 13:31:23;;;;;;;4.63;2.93;;;;;;;;;;5049173;28;20779;-85
2023/09/03 13:33:49;;;;;;;4.73;3.30;;;;;;;;;;5068263;28;20643;-84
2023/09/03 13:36:17;;;;;;;3.00;2.80;;;;;;;;;;5068693;28;20214;-84
2023/09/03 13:38:44;;;;;;;2.70;2.50;;;;;;;;;;5068355;28;20193;-85
2023/09/03 13:41:10;;;;;;;3.80;3.50;;;;;;;;;;5070098;28;20287;-84
2023/09/03 13:43:36;;;;;;;4.37;3.97;;;;;;;;;;5068635;28;20181;-86
2023/09/03 13:46:02;;;;;;;4.37;3.87;;;;;;;;;;5039156;28;20189;-86
2023/09/03 13:48:28;;;;;;;4.13;3.73;;;;;;;;;;5049627;28;20628;-84
2023/09/03 13:50:55;;;;;;;4.10;3.53;;;;;;;;;;5072799;28;20317;-89
2023/09/03 13:53:21;;;;;;;3.53;3.23;;;;;;;;;;5075140;28;20222;-88
2023/09/03 13:55:48;;;;;;;4.20;3.80;;;;;;;;;;5071923;28;20671;-88
2023/09/03 13:58:14;;;;;;;4.23;3.93;;;;;;;;;;5076694;28;20192;-88
2023/09/03 14:00:40;;;;;;;4.60;4.20;;;;;;;;;;5079052;28;20172;-87
2023/09/03 14:03:06;;;;;;;5.43;5.03;;;;;;;;;;5075712;28;20204;-88
2023/09/03 14:05:32;;;;;;;5.00;4.60;;;;;;;;;;5076680;28;20183;-89
2023/09/03 14:07:58;;;;;;;5.53;5.03;;;;;;;;;;5073257;28;20191;-89
2023/09/03 14:10:24;;;;;;;5.80;5.27;;;;;;;;;;5074018;28;20592;-89
2023/09/03 14:12:50;;;;;;;5.57;5.17;;;;;;;;;;5071957;28;20270;-87
2023/09/03 14:15:16;;;;;;;6.17;5.57;;;;;;;;;;5074327;28;20184;-87
2023/09/03 14:17:42;;;;;;;6.33;5.73;;;;;;;;;;5073707;28;20199;-87
2023/09/03 14:20:09;;;;;;;5.93;5.43;;;;;;;;;;5074300;28;20195;-87
2023/09/03 14:22:35;;;;;;;5.53;5.13;;;;;;;;;;5073264;28;20185;-87
2023/09/03 14:25:01;;;;;;;5.80;5.40;;;;;;;;;;5075269;28;20226;-87
2023/09/03 14:27:28;;;;;;;5.57;5.00;;;;;;;;;;5068350;28;20557;-89
2023/09/03 14:29:54;;;;;;;5.50;5.07;;;;;;;;;;5073405;28;20177;-87
2023/09/03 14:32:20;;;;;;;6.00;5.20;;;;;;;;;;5070237;28;20218;-85
2023/09/03 14:34:46;;;;;;;6.03;5.30;;;;;;;;;;5069271;28;20204;-88
2023/09/03 14:37:12;;;;;;;6.47;5.17;;;;;;;;;;5070224;28;20672;-89